Time;durP1;ratioP1;P1;durP2;ratioP2;P2;SDS_P1;SDS_P2;PMS_P1;PMS_P2;Temp;Humidity;BMP_temperature;BMP_pressure;BME280_temperature;BME280_humidity;BME280_pressure;Samples;Min_cycle;Max_cycle;Signal;HPM_P1;HPM_P2
2022/12/28 00:01:54;;;;;;;5.87;2.97;;;9.50;99.90;;;;;;5058531;28;20571;-29
2022/12/28 00:04:23;;;;;;;6.13;3.10;;;9.50;99.90;;;;;;5058306;28;20521;-29
2022/12/28 00:06:50;;;;;;;4.40;3.07;;;9.50;99.90;;;;;;5056205;28;20207;-29
2022/12/28 00:09:19;;;;;;;7.33;3.13;;;9.50;99.90;;;;;;5045815;28;20242;-30
2022/12/28 00:11:49;;;;;;;5.93;2.73;;;9.50;99.90;;;;;;5050011;28;20204;-30
2022/12/28 00:14:16;;;;;;;6.87;3.30;;;9.50;99.90;;;;;;5051962;28;20211;-30
2022/12/28 00:16:44;;;;;;;4.47;2.70;;;9.50;99.90;;;;;;5059791;28;20269;-30
2022/12/28 00:19:13;;;;;;;7.37;2.70;;;9.50;99.90;;;;;;5066123;28;20203;-29
2022/12/28 00:21:41;;;;;;;6.77;2.70;;;9.50;99.90;;;;;;5055488;28;20584;-30
2022/12/28 00:24:22;;;;;;;3.83;2.50;;;9.50;99.90;;;;;;5065029;28;20713;-30
2022/12/28 00:26:55;;;;;;;10.57;3.90;;;9.50;99.90;;;;;;5057533;28;20219;-30
2022/12/28 00:29:25;;;;;;;8.00;2.87;;;9.50;99.90;;;;;;5058124;28;20212;-29
2022/12/28 00:31:55;;;;;;;5.77;3.10;;;9.60;99.90;;;;;;5052792;28;20199;-30
2022/12/28 00:34:22;;;;;;;7.93;3.13;;;9.60;99.90;;;;;;5060768;28;20244;-30
2022/12/28 00:36:50;;;;;;;3.97;2.93;;;9.60;99.90;;;;;;5062244;28;20192;-30
2022/12/28 00:39:37;;;;;;;4.50;2.43;;;9.60;99.90;;;;;;5046644;28;20227;-29
2022/12/28 00:42:04;;;;;;;6.77;2.87;;;9.60;99.90;;;;;;5049092;28;20228;-30
2022/12/28 00:44:31;;;;;;;5.20;2.93;;;9.60;99.90;;;;;;5045325;28;20724;-29
2022/12/28 00:46:58;;;;;;;4.17;2.73;;;9.60;99.90;;;;;;5044780;28;20216;-29
2022/12/28 00:49:26;;;;;;;3.80;2.43;;;9.60;99.90;;;;;;5049032;28;20188;-29
2022/12/28 00:51:53;;;;;;;5.10;2.70;;;9.70;99.90;;;;;;5057089;28;20314;-29
2022/12/28 00:54:20;;;;;;;6.67;2.90;;;9.70;99.90;;;;;;5061070;28;20671;-29
2022/12/28 00:56:55;;;;;;;5.13;2.83;;;9.70;99.90;;;;;;5045986;28;20668;-29
2022/12/28 00:59:22;;;;;;;4.53;2.70;;;9.70;99.90;;;;;;5046292;28;20222;-30
2022/12/28 01:01:50;;;;;;;6.53;3.07;;;9.60;99.90;;;;;;5057591;28;20246;-30
2022/12/28 01:04:17;;;;;;;4.80;2.97;;;9.70;99.90;;;;;;5064020;28;20219;-30
2022/12/28 01:06:44;;;;;;;6.73;3.00;;;9.70;99.90;;;;;;5044703;28;20590;-29
2022/12/28 01:09:11;;;;;;;4.23;2.60;;;9.60;99.90;;;;;;5055218;28;20203;-30
2022/12/28 01:11:41;;;;;;;7.23;3.10;;;9.70;99.90;;;;;;5057328;28;20207;-30
2022/12/28 01:14:08;;;;;;;4.93;2.80;;;9.70;99.90;;;;;;5049930;28;20284;-29
2022/12/28 01:16:36;;;;;;;5.43;2.90;;;9.70;99.90;;;;;;5058275;28;20231;-29
2022/12/28 01:19:05;;;;;;;5.20;2.70;;;9.80;99.90;;;;;;5064270;28;20282;-30
2022/12/28 01:21:34;;;;;;;6.73;2.80;;;9.80;99.90;;;;;;5053703;28;20212;-30
2022/12/28 01:24:07;;;;;;;4.60;2.80;;;9.80;99.90;;;;;;5049207;28;20239;-29
2022/12/28 01:26:39;;;;;;;3.83;2.67;;;9.80;99.90;;;;;;5046663;28;20208;-30
2022/12/28 01:29:09;;;;;;;4.33;2.53;;;9.80;99.90;;;;;;5058201;28;20199;-30
2022/12/28 01:31:38;;;;;;;4.63;2.83;;;9.80;99.90;;;;;;5045067;28;20212;-29
2022/12/28 01:34:06;;;;;;;5.27;2.77;;;9.80;99.90;;;;;;5048684;28;20568;-30
2022/12/28 01:36:35;;;;;;;4.77;2.90;;;9.90;99.90;;;;;;5050622;28;20214;-30
2022/12/28 01:39:05;;;;;;;3.33;2.73;;;9.90;99.90;;;;;;5053107;28;20293;-30
2022/12/28 01:41:40;;;;;;;4.27;2.67;;;9.90;99.90;;;;;;5050722;28;20290;-30
2022/12/28 01:44:09;;;;;;;3.50;2.57;;;9.90;99.90;;;;;;5049414;28;20343;-30
2022/12/28 01:46:48;;;;;;;5.57;2.73;;;10.00;99.90;;;;;;5052113;28;20331;-30
2022/12/28 01:49:45;;;;;;;3.67;2.70;;;10.00;99.90;;;;;;5060812;28;20251;-29
2022/12/28 01:52:50;;;;;;;4.10;2.80;;;10.00;99.90;;;;;;5060052;28;21578;-29
2022/12/28 01:55:24;;;;;;;6.37;2.70;;;10.00;99.90;;;;;;5048628;28;20204;-30
2022/12/28 01:58:13;;;;;;;2.83;2.50;;;10.00;99.90;;;;;;5053861;28;20223;-29
2022/12/28 02:00:40;;;;;;;5.30;2.93;;;10.00;99.90;;;;;;5059209;28;20283;-29
2022/12/28 02:03:16;;;;;;;5.03;3.07;;;10.00;99.90;;;;;;5054105;28;20246;-30
2022/12/28 02:05:54;;;;;;;3.40;2.50;;;10.10;99.90;;;;;;5059654;28;20632;-30
2022/12/28 02:08:27;;;;;;;4.97;2.77;;;10.10;99.90;;;;;;5055394;28;20200;-30
2022/12/28 02:10:57;;;;;;;5.53;3.07;;;10.10;99.90;;;;;;5067313;28;20261;-30
2022/12/28 02:13:25;;;;;;;4.87;2.90;;;10.00;99.90;;;;;;5062671;28;20211;-30
2022/12/28 02:15:53;;;;;;;7.00;3.07;;;10.10;99.90;;;;;;5053290;28;20521;-29
2022/12/28 02:18:22;;;;;;;3.40;2.70;;;10.10;99.90;;;;;;5056954;28;20212;-29
2022/12/28 02:21:16;;;;;;;4.63;2.67;;;10.10;99.90;;;;;;5065191;28;20300;-29
2022/12/28 02:24:20;;;;;;;4.87;3.03;;;10.10;99.90;;;;;;5063509;28;20227;-30
2022/12/28 02:27:01;;;;;;;5.50;2.90;;;10.20;99.90;;;;;;5037523;28;20640;-30
2022/12/28 02:30:13;;;;;;;4.27;2.40;;;10.20;99.90;;;;;;5054196;28;20193;-30
2022/12/28 02:32:55;;;;;;;3.53;2.53;;;10.20;99.90;;;;;;5013361;28;20616;-30
2022/12/28 02:35:45;;;;;;;4.70;2.57;;;10.10;99.90;;;;;;5053876;28;20518;-30
2022/12/28 02:38:27;;;;;;;5.73;2.90;;;10.20;99.90;;;;;;5049374;28;20773;-29
2022/12/28 02:41:02;;;;;;;3.83;2.43;;;10.20;99.90;;;;;;5060325;28;20242;-29
2022/12/28 02:43:32;;;;;;;7.63;2.93;;;10.20;99.90;;;;;;5066491;28;20310;-29
2022/12/28 02:52:31;;;;;;;4.63;2.50;;;10.30;99.90;;;;;;5057096;28;20559;-29
2022/12/28 02:58:27;;;;;;;4.10;2.90;;;10.30;99.90;;;;;;5055685;28;20227;-30
2022/12/28 03:01:23;;;;;;;6.17;2.77;;;10.30;99.90;;;;;;5051900;28;20287;-30
2022/12/28 03:03:54;;;;;;;3.63;2.50;;;10.30;99.90;;;;;;5040588;28;20232;-29
2022/12/28 03:09:29;;;;;;;3.07;2.63;;;10.40;99.90;;;;;;5063259;28;20594;-30
2022/12/28 03:12:30;;;;;;;4.87;2.90;;;10.40;99.90;;;;;;5061057;28;20207;-29
2022/12/28 03:15:10;;;;;;;5.67;2.63;;;10.40;99.90;;;;;;5046735;28;20211;-29
2022/12/28 03:31:46;;;;;;;3.63;2.33;;;10.50;99.90;;;;;;5057950;28;20230;-29
2022/12/28 03:34:13;;;;;;;4.63;2.43;;;10.60;99.90;;;;;;5051426;28;20216;-30
2022/12/28 03:37:03;;;;;;;3.93;2.30;;;10.60;99.90;;;;;;5053929;28;20200;-29
2022/12/28 03:40:01;;;;;;;3.07;2.53;;;10.50;99.90;;;;;;5055845;28;20246;-30
2022/12/28 03:45:34;;;;;;;3.53;2.33;;;10.60;99.90;;;;;;5055218;28;20653;-30
2022/12/28 03:48:14;;;;;;;5.67;2.70;;;10.50;99.90;;;;;;5050124;28;20215;-30
2022/12/28 03:50:44;;;;;;;4.77;2.20;;;10.50;99.90;;;;;;5047048;28;20236;-30
2022/12/28 03:53:14;;;;;;;3.30;2.73;;;10.60;99.90;;;;;;5062874;28;20211;-30
2022/12/28 03:55:44;;;;;;;5.10;2.90;;;10.60;99.90;;;;;;5056095;28;20311;-30
2022/12/28 03:58:12;;;;;;;5.43;2.57;;;10.60;99.90;;;;;;5049430;28;20231;-30
2022/12/28 04:00:43;;;;;;;4.57;2.23;;;10.60;99.90;;;;;;5048534;28;20200;-30
2022/12/28 04:03:13;;;;;;;4.27;2.10;;;10.60;99.90;;;;;;5050073;28;20223;-29
2022/12/28 04:05:40;;;;;;;4.97;2.53;;;10.70;99.90;;;;;;5065425;28;20207;-30
2022/12/28 04:08:07;;;;;;;5.67;2.47;;;10.60;99.90;;;;;;5048791;28;20234;-29
2022/12/28 04:10:35;;;;;;;4.20;1.97;;;10.60;99.90;;;;;;5051474;28;20277;-30
2022/12/28 04:13:02;;;;;;;3.17;2.13;;;10.70;99.90;;;;;;5044958;28;20646;-30
2022/12/28 04:15:29;;;;;;;4.63;2.43;;;10.70;99.90;;;;;;5054633;28;20211;-30
2022/12/28 04:17:59;;;;;;;5.47;2.50;;;10.70;99.90;;;;;;5051517;28;20615;-30
2022/12/28 04:20:29;;;;;;;6.87;2.40;;;10.80;99.90;;;;;;5050047;28;20223;-29
2022/12/28 04:22:59;;;;;;;4.37;2.07;;;10.80;99.90;;;;;;5048366;28;20237;-30
2022/12/28 04:25:26;;;;;;;3.90;2.20;;;10.80;99.90;;;;;;5065602;28;20286;-29
2022/12/28 04:27:53;;;;;;;5.17;2.33;;;10.80;99.90;;;;;;5052491;28;20216;-29
2022/12/28 04:30:22;;;;;;;5.47;2.20;;;10.80;99.90;;;;;;5049782;28;20303;-29
2022/12/28 04:32:52;;;;;;;4.43;2.20;;;10.80;99.90;;;;;;5047029;28;20254;-29
2022/12/28 04:35:25;;;;;;;8.33;2.13;;;10.80;99.90;;;;;;5059098;28;20503;-29
2022/12/28 04:37:52;;;;;;;4.53;1.90;;;10.70;99.90;;;;;;5057332;28;20280;-29
2022/12/28 04:40:24;;;;;;;2.93;1.90;;;10.70;99.90;;;;;;5045773;28;20196;-29
2022/12/28 04:42:51;;;;;;;4.73;2.03;;;10.80;99.90;;;;;;5046981;28;20223;-29
2022/12/28 04:45:20;;;;;;;5.53;2.43;;;10.80;99.90;;;;;;5047176;28;20230;-29
2022/12/28 04:47:48;;;;;;;5.20;1.97;;;10.80;99.90;;;;;;5048891;28;20204;-29
2022/12/28 04:50:17;;;;;;;4.90;1.87;;;10.80;99.90;;;;;;5060190;28;20326;-29
2022/12/28 04:52:47;;;;;;;3.80;2.20;;;10.80;99.90;;;;;;5063176;28;20682;-29
2022/12/28 04:55:14;;;;;;;3.17;2.00;;;10.80;99.90;;;;;;5053814;28;20261;-29
2022/12/28 04:58:02;;;;;;;2.33;1.90;;;10.80;99.90;;;;;;5063065;28;20208;-29
2022/12/28 05:00:29;;;;;;;3.20;1.47;;;10.80;99.90;;;;;;5051196;28;20215;-29
2022/12/28 05:03:00;;;;;;;3.07;2.00;;;10.80;99.90;;;;;;5050199;28;20223;-29
2022/12/28 05:05:28;;;;;;;4.20;2.03;;;10.80;99.90;;;;;;5050783;28;20693;-29
2022/12/28 05:07:58;;;;;;;5.80;2.00;;;10.80;99.90;;;;;;5059965;28;20227;-29
2022/12/28 05:10:28;;;;;;;3.97;1.70;;;10.80;99.90;;;;;;5064169;28;20588;-29
2022/12/28 05:12:55;;;;;;;4.13;2.13;;;10.80;99.90;;;;;;5055811;28;20207;-30
2022/12/28 05:15:22;;;;;;;4.20;1.80;;;10.80;99.90;;;;;;5051905;28;20227;-29
2022/12/28 05:17:55;;;;;;;4.73;1.93;;;10.80;99.90;;;;;;5050805;28;20697;-29
2022/12/28 05:20:22;;;;;;;4.07;2.10;;;10.80;99.90;;;;;;5058461;28;20277;-29
2022/12/28 05:22:50;;;;;;;3.13;1.90;;;10.90;99.90;;;;;;5061224;28;20643;-29
2022/12/28 05:25:17;;;;;;;5.20;1.93;;;10.90;99.90;;;;;;5056381;28;20777;-29
2022/12/28 05:27:47;;;;;;;3.77;1.83;;;10.90;99.90;;;;;;5065196;28;20199;-29
2022/12/28 05:30:18;;;;;;;3.13;1.97;;;10.90;99.90;;;;;;5071166;28;20631;-29
2022/12/28 05:32:50;;;;;;;3.50;1.90;;;10.90;99.90;;;;;;5058461;28;20293;-29
2022/12/28 05:35:17;;;;;;;4.37;2.00;;;10.90;99.90;;;;;;5067084;28;20218;-29
2022/12/28 05:37:45;;;;;;;2.93;1.80;;;10.90;99.90;;;;;;5049862;28;20315;-29
2022/12/28 05:40:15;;;;;;;5.23;1.93;;;10.90;99.90;;;;;;5052562;28;20262;-29
2022/12/28 05:42:42;;;;;;;5.80;2.00;;;10.90;99.90;;;;;;5067832;28;20211;-29
2022/12/28 05:45:20;;;;;;;5.10;2.10;;;10.90;99.90;;;;;;5066257;28;20618;-29
2022/12/28 05:47:49;;;;;;;2.07;1.70;;;10.90;99.90;;;;;;5066802;28;20216;-29
2022/12/28 05:50:23;;;;;;;3.47;2.10;;;10.90;99.90;;;;;;5054345;28;20672;-29
2022/12/28 05:52:55;;;;;;;4.37;1.70;;;10.90;99.90;;;;;;5060053;28;20807;-29
2022/12/28 05:55:22;;;;;;;4.70;1.43;;;10.90;99.90;;;;;;5052139;28;20677;-29
2022/12/28 05:57:49;;;;;;;2.57;1.60;;;10.90;99.90;;;;;;5058925;28;20203;-29
2022/12/28 06:00:19;;;;;;;3.60;1.50;;;10.90;99.90;;;;;;5068128;28;20290;-29
2022/12/28 06:02:49;;;;;;;3.00;1.83;;;10.90;99.90;;;;;;5067071;28;20625;-29
2022/12/28 06:05:19;;;;;;;5.93;2.13;;;10.90;99.90;;;;;;5059531;28;20227;-29
2022/12/28 06:07:53;;;;;;;2.97;1.50;;;10.90;99.90;;;;;;5055212;28;20199;-29
2022/12/28 06:10:23;;;;;;;3.20;1.73;;;10.90;99.90;;;;;;5059948;28;20196;-29
2022/12/28 06:12:53;;;;;;;2.43;1.43;;;10.90;99.90;;;;;;5058089;28;20306;-29
2022/12/28 06:15:22;;;;;;;2.70;1.60;;;10.90;99.90;;;;;;5056057;28;20203;-29
2022/12/28 06:17:52;;;;;;;5.63;2.33;;;10.90;99.90;;;;;;5059048;28;20227;-29
2022/12/28 06:20:19;;;;;;;3.93;1.70;;;11.00;99.90;;;;;;5059230;28;20212;-29
2022/12/28 06:22:48;;;;;;;3.37;1.73;;;10.90;99.90;;;;;;5063049;28;20729;-29
2022/12/28 06:25:15;;;;;;;2.97;1.90;;;10.90;99.90;;;;;;5064203;28;20588;-29
2022/12/28 06:27:42;;;;;;;3.97;1.90;;;11.00;99.90;;;;;;5054946;28;20284;-29
2022/12/28 06:30:10;;;;;;;3.30;1.87;;;11.00;99.90;;;;;;5060410;28;20305;-30
2022/12/28 06:32:37;;;;;;;5.50;1.80;;;11.00;99.90;;;;;;5066796;28;20203;-29
2022/12/28 06:35:05;;;;;;;6.63;1.90;;;11.00;99.90;;;;;;5057878;28;20204;-29
2022/12/28 06:37:37;;;;;;;5.37;2.40;;;11.00;99.90;;;;;;5065004;28;20595;-29
2022/12/28 06:40:04;;;;;;;4.33;1.83;;;11.00;99.90;;;;;;5061516;28;20773;-29
2022/12/28 06:42:31;;;;;;;6.00;2.70;;;11.00;99.90;;;;;;5049603;28;20722;-29
2022/12/28 06:44:58;;;;;;;5.97;2.13;;;11.00;99.90;;;;;;5047793;28;20322;-29
2022/12/28 06:47:26;;;;;;;4.73;2.27;;;11.10;99.90;;;;;;5057034;28;20196;-29
2022/12/28 06:49:53;;;;;;;6.30;1.97;;;11.10;99.90;;;;;;5056416;28;20223;-29
2022/12/28 06:52:23;;;;;;;4.47;1.90;;;11.10;99.90;;;;;;5063242;28;20235;-36
2022/12/28 06:54:52;;;;;;;4.40;1.87;;;11.10;99.90;;;;;;5063727;28;20208;-29
2022/12/28 06:57:22;;;;;;;8.53;2.30;;;11.00;99.90;;;;;;5063611;28;20222;-29
2022/12/28 06:59:51;;;;;;;4.33;2.03;;;11.00;99.90;;;;;;5055768;28;20241;-29
2022/12/28 07:02:23;;;;;;;8.13;2.33;;;11.10;99.90;;;;;;5047396;28;20573;-29
2022/12/28 07:04:53;;;;;;;7.07;1.97;;;11.10;99.90;;;;;;5048643;28;20703;-29
2022/12/28 07:07:20;;;;;;;4.87;1.90;;;11.10;99.90;;;;;;5066935;28;20204;-29
2022/12/28 07:09:47;;;;;;;4.53;1.97;;;11.10;99.90;;;;;;5054058;28;20210;-30
2022/12/28 07:12:14;;;;;;;5.97;2.10;;;11.10;99.90;;;;;;5049040;28;20324;-29
2022/12/28 07:14:44;;;;;;;5.30;2.13;;;11.10;99.90;;;;;;5055595;28;20686;-29
2022/12/28 07:17:11;;;;;;;5.17;1.93;;;11.10;99.90;;;;;;5056534;28;20670;-29
2022/12/28 07:19:41;;;;;;;4.00;2.03;;;11.10;99.90;;;;;;5054679;28;20216;-29
2022/12/28 07:22:08;;;;;;;5.47;1.90;;;11.10;99.90;;;;;;5054075;28;20262;-29
2022/12/28 07:24:35;;;;;;;5.03;1.83;;;11.10;99.90;;;;;;5054400;28;20588;-29
2022/12/28 07:27:02;;;;;;;4.47;1.63;;;11.10;99.90;;;;;;5060874;28;20199;-29
2022/12/28 07:29:31;;;;;;;4.53;1.70;;;11.20;99.90;;;;;;5053173;28;20204;-29
2022/12/28 07:31:58;;;;;;;4.27;1.93;;;11.20;99.90;;;;;;5060918;28;21113;-29
2022/12/28 07:34:28;;;;;;;7.17;2.13;;;11.20;99.90;;;;;;5060810;28;20212;-29
2022/12/28 07:36:57;;;;;;;6.97;1.80;;;11.30;99.90;;;;;;5047329;28;20309;-29
2022/12/28 07:39:27;;;;;;;5.00;1.80;;;11.20;99.90;;;;;;5049319;28;20200;-29
2022/12/28 07:41:56;;;;;;;6.00;1.97;;;11.30;99.90;;;;;;5058631;28;20216;-29
2022/12/28 07:44:23;;;;;;;5.93;1.87;;;11.30;99.90;;;;;;5054924;28;20810;-29
2022/12/28 07:46:55;;;;;;;6.13;1.60;;;11.20;99.90;;;;;;5048212;28;20643;-29
2022/12/28 07:49:23;;;;;;;4.87;1.87;;;11.20;99.90;;;;;;5059764;28;20628;-29
2022/12/28 07:51:50;;;;;;;5.33;1.70;;;11.30;99.90;;;;;;5045441;28;20323;-29
2022/12/28 07:54:22;;;;;;;2.77;1.70;;;11.20;99.90;;;;;;5051943;28;20678;-29
2022/12/28 07:56:49;;;;;;;3.33;1.57;;;11.20;99.90;;;;;;5063198;28;20694;-29
2022/12/28 07:59:18;;;;;;;1.47;1.30;;;11.20;99.90;;;;;;5064410;28;20292;-29
2022/12/28 08:01:51;;;;;;;3.23;1.63;;;11.20;99.90;;;;;;5052057;28;20608;-29
2022/12/28 08:04:23;;;;;;;2.40;1.30;;;11.30;99.90;;;;;;5050363;28;20224;-29
2022/12/28 08:06:53;;;;;;;4.43;2.00;;;11.20;99.90;;;;;;5046486;28;20231;-29
2022/12/28 08:09:20;;;;;;;3.13;1.50;;;11.20;99.90;;;;;;5052983;28;20192;-29
2022/12/28 08:11:50;;;;;;;1.60;1.37;;;11.20;99.90;;;;;;5065964;28;20204;-29
2022/12/28 08:14:17;;;;;;;2.60;1.57;;;11.20;99.90;;;;;;5050053;28;20247;-29
2022/12/28 08:16:47;;;;;;;3.97;1.50;;;11.20;99.90;;;;;;5056545;28;20693;-29
2022/12/28 08:19:14;;;;;;;2.53;1.40;;;11.20;99.90;;;;;;5065638;28;20261;-29
2022/12/28 08:21:44;;;;;;;4.97;1.80;;;11.20;99.90;;;;;;5058657;28;20274;-29
2022/12/28 08:24:18;;;;;;;4.73;1.77;;;11.20;99.90;;;;;;5045215;28;20254;-29
2022/12/28 08:26:47;;;;;;;3.73;1.90;;;11.20;99.90;;;;;;5058291;28;20216;-29
2022/12/28 08:29:20;;;;;;;4.20;2.17;;;11.20;99.90;;;;;;5064558;28;20572;-29
2022/12/28 08:31:49;;;;;;;3.37;1.67;;;11.20;99.90;;;;;;5062722;28;20291;-29
2022/12/28 08:34:25;;;;;;;4.87;2.17;;;11.30;99.90;;;;;;5065479;28;20815;-29
2022/12/28 08:36:54;;;;;;;3.67;2.00;;;11.30;99.90;;;;;;5050331;28;20219;-29
2022/12/28 08:39:21;;;;;;;4.67;2.00;;;11.30;99.90;;;;;;5044750;28;20618;-29
2022/12/28 08:41:51;;;;;;;3.83;1.90;;;11.30;99.90;;;;;;5061220;28;20215;-29
2022/12/28 08:44:18;;;;;;;5.73;2.10;;;11.30;99.90;;;;;;5063648;28;20753;-29
2022/12/28 08:46:45;;;;;;;4.30;2.00;;;11.30;99.90;;;;;;5053800;28;20212;-29
2022/12/28 08:49:12;;;;;;;4.00;2.20;;;11.40;99.90;;;;;;5047354;28;20310;-29
2022/12/28 08:51:43;;;;;;;5.10;2.03;;;11.40;99.90;;;;;;5053235;28;20793;-29
2022/12/28 08:54:12;;;;;;;4.47;2.00;;;11.40;99.90;;;;;;5055628;28;20291;-29
2022/12/28 08:56:42;;;;;;;4.53;2.00;;;11.40;99.90;;;;;;5059794;28;20216;-29
2022/12/28 08:59:16;;;;;;;5.17;2.00;;;11.40;99.90;;;;;;5041791;28;20223;-29
2022/12/28 09:01:46;;;;;;;4.47;2.00;;;11.40;99.90;;;;;;5043922;28;20200;-29
2022/12/28 09:04:18;;;;;;;3.97;2.37;;;11.40;99.90;;;;;;5059232;28;20202;-29
2022/12/28 09:06:48;;;;;;;5.80;2.57;;;11.40;99.90;;;;;;5060105;28;20215;-29
2022/12/28 09:09:18;;;;;;;8.90;2.47;;;11.40;99.90;;;;;;5058660;28;20196;-29
2022/12/28 09:11:48;;;;;;;6.00;2.50;;;11.40;99.90;;;;;;5048541;28;20805;-29
2022/12/28 09:14:20;;;;;;;4.53;2.23;;;11.40;99.90;;;;;;5036235;28;20207;-29
2022/12/28 09:16:52;;;;;;;5.77;2.53;;;11.40;99.90;;;;;;5052991;28;20684;-29
2022/12/28 09:19:19;;;;;;;4.27;2.57;;;11.40;99.90;;;;;;5054245;28;20223;-29
2022/12/28 09:21:51;;;;;;;5.80;2.53;;;11.40;99.90;;;;;;5043586;28;20201;-29
2022/12/28 09:24:21;;;;;;;3.47;2.10;;;11.50;99.90;;;;;;5044380;28;20212;-29
2022/12/28 09:26:51;;;;;;;6.20;2.57;;;11.50;99.90;;;;;;5053944;28;20515;-29
2022/12/28 09:29:19;;;;;;;5.67;2.23;;;11.50;99.90;;;;;;5051511;28;20232;-29
2022/12/28 09:31:48;;;;;;;4.70;2.63;;;11.50;99.90;;;;;;5057986;28;20295;-29
2022/12/28 09:34:16;;;;;;;4.60;2.40;;;11.50;99.90;;;;;;5056469;28;20330;-29
2022/12/28 09:37:04;;;;;;;5.43;2.57;;;11.50;99.90;;;;;;5056793;28;20206;-29
2022/12/28 09:39:34;;;;;;;3.60;2.67;;;11.60;99.90;;;;;;5050243;28;20298;-29
2022/12/28 09:42:20;;;;;;;3.83;2.20;;;11.50;99.90;;;;;;5053947;28;20188;-29
2022/12/28 09:44:50;;;;;;;5.17;2.33;;;11.50;99.90;;;;;;5060608;28;20783;-29
2022/12/28 09:47:25;;;;;;;8.13;2.30;;;11.60;99.90;;;;;;5053657;28;20670;-29
2022/12/28 09:50:23;;;;;;;5.60;2.10;;;11.50;99.90;;;;;;5052329;28;20282;-29
2022/12/28 09:53:22;;;;;;;4.80;1.90;;;11.60;99.90;;;;;;5043519;28;20214;-29
2022/12/28 09:55:53;;;;;;;4.27;2.27;;;11.60;99.90;;;;;;5055647;28;20211;-29
2022/12/28 09:58:26;;;;;;;3.50;2.13;;;11.60;99.90;;;;;;5046324;28;20215;-29
2022/12/28 10:00:58;;;;;;;4.17;1.93;;;11.60;99.90;;;;;;5060062;28;20556;-29
2022/12/28 10:03:39;;;;;;;4.30;2.00;;;11.60;99.90;;;;;;5059673;28;20301;-29
2022/12/28 10:06:26;;;;;;;4.30;2.17;;;11.60;99.90;;;;;;5057679;28;20811;-29
2022/12/28 10:08:56;;;;;;;5.80;2.40;;;11.60;99.90;;;;;;5063034;28;20216;-29
2022/12/28 10:11:40;;;;;;;3.40;1.90;;;11.60;99.90;;;;;;5052242;28;20204;-29
2022/12/28 10:14:29;;;;;;;4.90;1.83;;;11.60;99.90;;;;;;5052127;28;20875;-29
2022/12/28 10:16:56;;;;;;;3.87;2.33;;;11.70;99.90;;;;;;5050395;28;20216;-29
2022/12/28 10:19:28;;;;;;;5.63;1.90;;;11.60;99.90;;;;;;5058333;28;20263;-29
2022/12/28 10:22:04;;;;;;;5.63;1.53;;;11.70;99.90;;;;;;5064763;28;20666;-29
2022/12/28 10:24:35;;;;;;;6.70;1.90;;;11.70;99.90;;;;;;5047628;28;20199;-29
2022/12/28 10:27:05;;;;;;;5.10;1.93;;;11.70;99.90;;;;;;5051981;28;20575;-29
2022/12/28 10:29:35;;;;;;;4.40;1.87;;;11.70;99.90;;;;;;5052627;28;20662;-29
2022/12/28 10:32:13;;;;;;;4.00;1.73;;;11.70;99.90;;;;;;5057781;28;20204;-29
2022/12/28 10:35:00;;;;;;;3.53;1.60;;;11.80;99.90;;;;;;5055982;28;20238;-29
2022/12/28 10:37:34;;;;;;;4.27;1.70;;;11.70;99.90;;;;;;5052759;28;20203;-29
2022/12/28 10:40:16;;;;;;;4.13;1.90;;;11.70;99.90;;;;;;5080829;28;20214;-29
2022/12/28 10:42:50;;;;;;;4.73;1.90;;;11.70;99.90;;;;;;5049832;28;20282;-29
2022/12/28 10:45:35;;;;;;;3.30;1.30;;;11.80;99.90;;;;;;5064920;28;20218;-29
2022/12/28 10:48:11;;;;;;;4.50;1.90;;;11.80;99.90;;;;;;5053555;28;20204;-30
2022/12/28 10:51:00;;;;;;;4.40;1.40;;;11.80;99.90;;;;;;5046749;28;20267;-30
2022/12/28 10:53:30;;;;;;;2.97;1.33;;;11.80;99.90;;;;;;5053159;28;20432;-30
2022/12/28 10:56:03;;;;;;;3.87;1.50;;;11.90;99.90;;;;;;5049423;28;20200;-30
2022/12/28 10:58:36;;;;;;;5.90;2.00;;;11.90;99.90;;;;;;5057286;28;20669;-29
2022/12/28 11:01:16;;;;;;;3.40;1.53;;;11.90;99.90;;;;;;5055261;28;20243;-29
2022/12/28 11:03:48;;;;;;;3.33;1.50;;;11.90;99.90;;;;;;5051150;28;20216;-30
2022/12/28 11:06:20;;;;;;;4.83;1.97;;;11.90;99.90;;;;;;5053802;28;20266;-29
2022/12/28 11:09:14;;;;;;;4.10;1.73;;;12.00;99.90;;;;;;5047125;28;20674;-30
2022/12/28 11:11:45;;;;;;;3.83;1.30;;;12.00;99.90;;;;;;5048073;28;20800;-30
2022/12/28 11:14:25;;;;;;;3.33;1.57;;;12.00;99.90;;;;;;5055329;28;20203;-29
2022/12/28 11:16:53;;;;;;;6.17;1.50;;;12.00;99.90;;;;;;5052055;28;20206;-30
2022/12/28 11:19:22;;;;;;;5.37;1.43;;;12.00;99.90;;;;;;5056219;28;20609;-29
2022/12/28 11:21:51;;;;;;;1.90;1.30;;;12.00;99.90;;;;;;5061846;28;20576;-30
2022/12/28 11:24:25;;;;;;;4.50;1.53;;;12.00;99.90;;;;;;5053747;28;20280;-29
2022/12/28 11:26:56;;;;;;;4.80;1.77;;;12.00;99.90;;;;;;5050414;28;20227;-30
2022/12/28 11:29:23;;;;;;;4.37;1.60;;;12.00;99.90;;;;;;5059469;28;20311;-29
2022/12/28 11:32:02;;;;;;;4.67;1.70;;;12.00;99.90;;;;;;5058127;28;20310;-30
2022/12/28 11:34:36;;;;;;;5.17;1.80;;;12.00;99.90;;;;;;5049084;28;20223;-30
2022/12/28 11:37:05;;;;;;;6.07;1.50;;;12.10;99.90;;;;;;5045759;28;20204;-29
2022/12/28 11:39:45;;;;;;;5.17;1.93;;;12.00;99.90;;;;;;5054233;28;20281;-29
2022/12/28 11:42:37;;;;;;;4.53;1.60;;;12.00;99.90;;;;;;5052375;28;20245;-30
2022/12/28 11:45:15;;;;;;;6.03;1.93;;;12.00;99.90;;;;;;5057532;28;20223;-29
2022/12/28 11:47:50;;;;;;;6.13;1.50;;;12.10;99.90;;;;;;5063284;28;20215;-29
2022/12/28 11:50:35;;;;;;;4.23;2.10;;;12.10;99.90;;;;;;5066028;28;20656;-30
2022/12/28 11:53:18;;;;;;;7.33;2.00;;;12.10;99.90;;;;;;5056094;28;20291;-29
2022/12/28 11:55:58;;;;;;;3.83;1.50;;;12.10;99.90;;;;;;5052183;28;20216;-29
2022/12/28 11:58:42;;;;;;;4.67;1.90;;;12.10;99.90;;;;;;5044494;28;20212;-30
2022/12/28 12:01:39;;;;;;;4.67;1.53;;;12.10;99.90;;;;;;5056607;28;20215;-29
2022/12/28 12:04:15;;;;;;;7.93;1.77;;;12.10;99.90;;;;;;5064048;28;20261;-30
2022/12/28 12:06:46;;;;;;;6.23;1.83;;;12.10;99.90;;;;;;5061422;28;20639;-29
2022/12/28 12:09:20;;;;;;;4.67;1.80;;;12.10;99.90;;;;;;5052056;28;20253;-29
2022/12/28 12:11:49;;;;;;;6.03;1.70;;;12.10;99.90;;;;;;5061507;28;20238;-29
2022/12/28 12:14:31;;;;;;;4.97;1.80;;;12.20;99.90;;;;;;5054286;28;20239;-29
2022/12/28 12:17:06;;;;;;;7.17;2.00;;;12.20;99.90;;;;;;5057211;28;20315;-29
2022/12/28 12:19:45;;;;;;;3.77;1.63;;;12.20;99.90;;;;;;5053351;28;20195;-30
2022/12/28 12:22:22;;;;;;;5.23;1.63;;;12.20;99.90;;;;;;5063643;28;20239;-30
2022/12/28 12:25:22;;;;;;;2.13;1.40;;;12.20;99.90;;;;;;5063592;28;20199;-30
2022/12/28 12:28:02;;;;;;;5.03;1.67;;;12.20;99.90;;;;;;5053442;28;20206;-30
2022/12/28 12:30:30;;;;;;;5.30;1.40;;;12.20;99.90;;;;;;5054007;28;20753;-30
2022/12/28 12:33:04;;;;;;;5.00;1.70;;;12.20;99.90;;;;;;5065390;28;20253;-29
2022/12/28 12:36:05;;;;;;;5.10;1.90;;;12.20;99.90;;;;;;5057693;28;20195;-29
2022/12/28 12:38:35;;;;;;;4.27;1.57;;;12.20;99.90;;;;;;5035484;28;20210;-30
2022/12/28 12:41:22;;;;;;;5.83;1.80;;;12.20;99.90;;;;;;5058151;28;20199;-30
2022/12/28 12:44:17;;;;;;;6.53;1.90;;;12.20;99.90;;;;;;5055663;28;20242;-30
2022/12/28 12:47:07;;;;;;;7.57;2.10;;;12.20;99.90;;;;;;5044486;28;20228;-30
2022/12/28 12:49:39;;;;;;;6.17;2.10;;;12.20;99.90;;;;;;5045445;28;20196;-30
2022/12/28 12:52:16;;;;;;;6.00;1.60;;;12.30;99.90;;;;;;5051504;28;20307;-29
2022/12/28 12:54:52;;;;;;;6.33;1.90;;;12.30;99.90;;;;;;5059936;28;20206;-30
2022/12/28 12:57:22;;;;;;;5.57;1.50;;;12.30;99.90;;;;;;5043252;28;20287;-30
2022/12/28 13:00:16;;;;;;;5.73;2.00;;;12.30;99.90;;;;;;5055135;28;20612;-30
2022/12/28 13:03:01;;;;;;;8.03;2.03;;;12.30;99.90;;;;;;5053771;28;20212;-29
2022/12/28 13:05:30;;;;;;;7.33;2.07;;;12.30;99.90;;;;;;5047333;28;20274;-30
2022/12/28 13:08:00;;;;;;;5.13;2.00;;;12.30;99.90;;;;;;5046632;28;20757;-30
2022/12/28 13:10:32;;;;;;;5.23;2.13;;;12.30;99.90;;;;;;5048902;28;20598;-29
2022/12/28 13:13:02;;;;;;;6.10;1.40;;;12.30;99.90;;;;;;5026245;28;20204;-29
2022/12/28 13:15:34;;;;;;;4.70;1.60;;;12.30;99.90;;;;;;5046465;28;20224;-30
2022/12/28 13:18:18;;;;;;;6.50;1.63;;;12.30;99.90;;;;;;5052626;28;20203;-30
2022/12/28 13:21:06;;;;;;;7.27;2.13;;;12.30;99.90;;;;;;5047974;28;20199;-30
2022/12/28 13:23:44;;;;;;;7.37;2.00;;;12.30;99.90;;;;;;5059163;28;20218;-29
2022/12/28 13:26:14;;;;;;;5.20;1.70;;;12.30;99.90;;;;;;5062536;28;20226;-30
2022/12/28 13:29:01;;;;;;;4.33;1.80;;;12.30;99.90;;;;;;5055104;28;20326;-30
2022/12/28 13:31:50;;;;;;;3.83;1.60;;;12.30;99.90;;;;;;5054454;28;20566;-30
2022/12/28 13:34:24;;;;;;;6.03;1.70;;;12.30;99.90;;;;;;5044559;28;20189;-30
2022/12/28 13:36:58;;;;;;;6.30;2.13;;;12.40;99.90;;;;;;5062054;28;20441;-29
2022/12/28 13:39:30;;;;;;;4.10;1.53;;;12.30;99.90;;;;;;5044463;28;20334;-29
2022/12/28 13:42:10;;;;;;;3.43;1.77;;;12.40;99.90;;;;;;5044613;28;20312;-30
2022/12/28 13:44:54;;;;;;;4.70;1.80;;;12.40;99.90;;;;;;5061455;28;20233;-30
2022/12/28 13:47:30;;;;;;;5.30;1.70;;;12.40;99.90;;;;;;5058374;28;20706;-29
2022/12/28 13:50:15;;;;;;;5.67;1.87;;;12.40;99.90;;;;;;5061872;28;20241;-30